ACT        NSW        VIC        QLD        SA        WA        TAS        NT        INFO        CALC            by VK5ZD

  Atmospheric Gas Attenuation - ITU Rec 676-11   --------------- db/100km ---------------
Station Date Time Temp RH % AH g/m3 Dew Point Wind Direction Speed kph Gust kph Barometer mB Rainfall Since 9am 24GHz 47GHz 76GHz 122GHz 134GHz 241GHz
Alva Beach 16 17:30 28.2 75 20.62 23.3 20 26 1006.3 0 44.1 41.2 81.0 214.5 238.7 829.4
Amberley 16 17:30 26.1 73 17.87 20.9 30 39 1006.7 0.4 38.5 37.2 70.5 186.5 203.6 707.3
Applethorpe 16 18:30 26.6 21 5.29 2.5 13 22 1007.2 0 12.1 18.0 23.3 60.6 48.8 165.9
Archerfield 16 17:30 25.8 74 17.82 20.8 28 39 1007.4 20.6 38.4 37.2 70.6 186.7 203.8 707.9
Ayr 16 17:30 29.3 58 16.94 20.2 11 17 1013.1 0 36.2 34.5 64.0 169.3 183.1 636.3
Ballera 16 17:30 28.9 8 2.29 -8.6 28 39 1009.6 0 5.9 14.3 14.6 37.3 20.6 66.6
Barcaldine 16 15:00 37.1 33 14.55 18.2 4 1013.1 0 30.6 28.0 49.3 130.1 137.1 476.5
Beaudesert Aws 16 17:30 25.3 79 18.49 21.4 13 24 1007.2 3.4 39.9 38.7 74.1 196.1 215.2 747.4
Bedourie 16 09:00 29.1 16 4.62 0.7 15 1010.8 0 10.7 16.9 20.8 54.0 41.2 139.4
Beerburrum 16 17:30 23.1 89 18.4 21.2 4 9 1013.1 10.6 39.9 39.8 76.3 201.7 221.1 767.7
Biloela 16 17:30 35.7 32 13.13 16.9 13 20 1004.7 0 27.9 26.1 44.7 118.1 122.2 424.5
Birdsville 16 17:30 29.9 15 4.53 0.5 30 35 1010.6 0 10.5 16.7 20.4 52.8 40.0 135.2
Blackall 16 17:30 36.2 15 6.31 5.5 17 24 1004.4 0 13.9 17.4 23.5 61.3 52.5 179.8
Blackwater Airport 16 17:29 36.2 33 13.89 17.8 7 9 1004.4 0 29.4 27.0 47.1 124.3 130.1 452.0
Bollon 16 09:00 22.7 26 5.25 2.4 6 1011.8 0 12.2 18.9 24.4 63.4 50.9 173.0
Boulia 16 15:00 37.5 18 8.1 9.3 11 1005.9 0 17.5 19.2 28.2 73.8 68.2 235.1
Bowen Airport Aws 16 17:30 28.6 72 20.24 23.1 17 22 1006.2 0 43.2 40.3 78.8 208.7 231.6 805.0
Brisbane 16 17:30 25.9 74 17.92 20.9 15 24 1007.4 31.6 38.6 37.4 70.9 187.7 205.0 712.1
Brisbane Airport 16 17:30 25.4 82 19.3 22.1 15 19 1007.9 19 41.6 40.2 77.9 206.0 227.4 789.8
Bundaberg 16 17:30 28.3 57 15.76 19.2 24 30 1006.1 0 33.8 32.6 59.5 157.3 168.4 585.1
Burketown Airport 16 17:30 34.7 39 15.19 19.1 7 11 1003.2 0 32.2 29.3 52.6 139.1 147.9 514.0
Cairns 16 17:30 26.1 91 22.28 24.5 2 7 1005.6 3.8 47.9 45.6 91.5 242.2 272.1 945.3
Cairns Racecourse 16 17:30 27.2 85 22.12 24.5 6 9 1013.1 0.6 47.3 45.0 89.9 237.9 266.8 927.0
Camooweal 16 17:30 38.7 19 9.09 10.9 28 39 1002.8 0 19.5 20.1 30.5 80.1 76.4 264.1
Canungra (Defence) 16 17:30 24.4 72 16.02 19 6 15 1013.1 0.2 34.7 34.8 64.1 169.4 181.9 631.4
Cape Flattery 16 17:30 27.1 84 21.74 24.2 28 35 1003.9 0.6 46.6 43.9 87.5 231.7 259.4 901.5
Cape Moreton 16 17:30 22.6 95 19.08 21.8 13 20 1007.4 13.6 41.4 41.1 79.7 210.9 232.5 807.3
Carters Bore 16 17:30 38.3 13 6.09 5 19 30 1013.1 0 13.4 17.0 22.6 58.9 49.7 170.1
Century Mine 16 17:30 38.3 21 9.84 12.1 20 30 1002.4 0 21.0 21.1 32.9 86.4 84.0 290.9
Charleville 16 17:30 32.8 11 3.88 -1.5 19 35 1006.7 0 9.1 15.4 17.9 46.2 32.8 110.3
Charters Towers 16 15:00 32.7 40 14.02 17.6 2 1004.9 0 29.9 28.3 49.7 131.1 137.5 477.6
Clermont Airport 16 17:30 35.7 29 11.9 15.4 9 17 1004.3 0 25.3 24.4 40.6 106.9 108.6 376.7
Cloncurry 16 17:30 40.1 15 7.7 8.5 17 28 1002.6 0 16.6 18.2 26.1 68.4 62.3 214.7
Coen Airport 16 17:30 29.6 72 21.37 24 11 17 1003.5 0 45.5 41.8 82.8 219.4 245.1 852.1
Collinsville 16 09:00 26.5 63 15.77 18.9 0 1013.1 0 34.0 33.6 61.3 162.1 173.5 602.3
Cooktown 16 17:30 25.4 92 21.66 24 19 28 1004.8 0.4 46.6 44.7 89.2 236.1 264.3 918.3
Coolangatta 16 18:30 25.4 65 15.3 18.3 24 32 1008.7 0.2 33.1 33.0 60.0 158.4 168.9 586.1
Cowley Beach (Defence) 16 17:30 27.9 80 21.64 24.1 6 11 1013.1 0 46.2 43.7 86.7 229.5 256.6 891.9
Cunnamulla 16 09:00 23.9 36 7.79 8.2 7 1012.5 0 17.4 22.0 32.3 84.6 77.3 265.9
Dalby 16 17:30 33.3 15 5.43 3.2 24 33 1005.3 0 12.2 16.9 21.9 56.9 46.2 157.6
Double Island Point 16 17:30 26.5 79 19.78 22.6 24 41 1006.1 0 42.5 40.5 78.9 208.8 231.1 802.9
Emerald 16 17:30 36.6 27 11.6 15.1 7 15 1004 0 24.7 23.7 39.1 103.2 104.1 361.3
Gatton 16 17:30 27.8 65 17.48 20.6 26 37 1013.1 0 37.5 36.0 67.6 178.8 194.4 675.4
Gayndah 16 17:30 36.1 32 13.4 16.8 9 15 1004 0 28.4 26.3 45.4 119.9 124.6 432.9
Georgetown Airport 16 17:30 34.1 26 9.81 12.4 13 24 1003.1 0 21.2 22.0 34.5 90.6 88.1 304.9
Gladstone 16 17:30 27.9 65 17.58 20.7 13 24 1006.7 0 37.7 35.9 67.6 178.8 194.7 676.4
Gladstone Airport 16 17:30 28.8 56 15.91 19.4 19 24 1006.7 0 34.1 32.7 59.8 158.0 169.4 588.6
Gold Coast Seaway 16 17:30 25.3 71 16.62 19.7 35 41 1008 0 35.9 35.3 65.7 173.7 187.7 651.6
Goondiwindi 16 18:30 27.4 13 3.42 -3.4 1008.2 0 8.3 15.8 17.8 45.9 30.9 102.7
Greenbank (Defence) 16 17:30 24.3 82 18.15 21 15 28 1013.1 0.6 39.2 38.8 73.9 195.4 213.8 742.3
Gympie 16 17:30 31.8 54 18.04 21.6 9 19 1005.2 0 38.3 35.0 66.1 174.9 191.0 664.2
Hamilton Island 16 17:30 27.2 78 20.3 23 24 28 1006.7 0.2 43.5 41.2 80.6 213.4 237.0 823.5
Hervey Bay 16 17:30 27.8 69 18.56 21.6 22 33 1006.5 0 39.8 37.6 72.0 190.5 209.1 726.5
Horn Island 16 17:30 28.3 79 21.84 24.3 11 15 1003.5 0.6 46.7 43.4 86.5 229.2 256.8 892.4
Hughenden 16 17:30 37.5 18 8.1 9.2 17 28 1002.6 0 17.5 19.1 28.0 73.6 68.0 234.5
Injune 16 09:00 26 42 10.23 12.1 33 1008.8 0 22.4 24.8 39.7 104.5 102.8 355.3
Innisfail Aero 16 17:30 28.3 77 21.29 23.9 22 26 1005.9 0 45.5 42.4 84.1 222.6 248.6 864.0
Isisford 16 09:00 31.6 20 6.61 6.4 20 1013.1 0 14.7 18.8 25.9 67.7 58.7 201.4
Julia Creek 16 17:30 40.2 14 7.22 7.6 19 32 1002.1 0 15.6 17.6 24.8 64.8 57.9 199.3
Kingaroy 16 17:30 33 33 11.75 14.6 22 33 1005.2 0 25.2 24.9 41.4 109.2 110.6 383.7
Kowanyama 16 17:30 29.7 71 21.19 23.9 13 19 1003.6 0 45.1 41.5 81.9 216.9 242.1 841.5
Lady Elliot Island 16 17:30 28 69 18.77 21.8 13 19 1006.9 0 40.2 38.0 72.8 192.6 211.6 735.4
Lake Julius 16 17:30 39.2 16 7.85 8.8 15 26 1013.1 0 16.9 18.8 27.1 71.0 64.9 223.8
Lochington 16 17:30 34.8 31 12.13 15.2 2 4 1003.9 0 25.9 24.9 41.8 110.1 112.3 389.6
Lockhart River 16 17:30 30.4 75 23.25 25.5 6 9 1003.7 59.8 49.4 45.0 90.9 240.7 271.5 943.9
Logan City 16 09:00 28 67 18.22 21.3 4 1013.1 1 39.0 37.2 70.7 187.0 204.5 710.7
Longreach 16 17:30 38.7 15 7.18 7.4 20 33 1003.6 0 15.6 17.9 25.1 65.8 58.6 201.8
Low Isles 16 17:30 27.4 85 22.37 24.7 32 37 1005.2 0 47.9 45.0 90.3 239.2 268.7 933.7
Lucinda 16 17:30 28 73 19.85 22.7 13 22 1006.2 0 42.5 39.9 77.6 205.5 227.6 790.9
Mackay 16 17:30 27.4 77 20.26 23 9 15 1007 0 43.4 41.0 80.2 212.4 235.8 819.4
Mackay Airport 16 17:30 27.4 78 20.52 23.2 13 19 1007 0 44.0 41.5 81.5 215.7 239.8 833.3
Mackay Racecourse 16 17:30 27.4 77 20.26 23 7 13 1013.1 0.2 43.4 41.3 80.6 213.4 236.8 822.8
Mareeba 16 17:30 28 67 18.22 21.3 17 26 1004.6 0 39.1 36.9 70.2 185.7 203.3 706.4
Maryborough 16 17:30 28.3 59 16.31 19.5 15 28 1006.2 0 35.0 33.5 61.8 163.4 175.9 611.1
Middle Percy Island 16 17:30 25.4 76 17.89 20.9 15 19 1007.3 0 38.6 37.5 71.3 188.5 205.9 715.2
Miles 16 17:30 31.7 18 5.98 4.5 15 26 1007.2 0 13.4 17.9 23.9 62.3 52.3 178.9
Mitchell 16 09:00 26.5 26 6.51 5.5 4 1009.7 0 14.7 19.6 27.1 70.8 61.2 209.6
Monto Township 16 09:00 26.4 71 17.67 20.8 4 1013.1 0 38.0 36.9 69.7 184.3 200.8 697.5
Moranbah Airport 16 17:30 34.6 33 12.78 16 17 22 1004.8 0 27.2 25.9 44.1 116.4 119.9 416.4
Mornington Island Airport 16 17:30 31.4 55 17.99 21.3 17 22 1003.4 0 38.3 35.0 66.1 175.0 191.1 664.4
Mount Isa 16 17:30 39.6 15 7.51 8.1 17 28 1003 0 16.2 18.1 25.8 67.5 61.0 210.0
Mount Stuart (Defence) 16 17:30 28 67 18.22 21.5 17 26 1013.1 0 39.0 37.2 70.7 187.0 204.5 710.7
Nambour 16 17:30 26.3 74 18.32 21.3 13 19 1007.1 0 39.4 37.9 72.4 191.5 209.8 728.8
New May Downs 16 17:30 38.9 14 6.77 6.6 15 30 1013.1 0 14.8 17.7 24.3 63.3 55.3 190.0
Normanton 16 17:30 34.1 32 12.08 15.1 15 20 1003.6 0 25.8 25.0 41.9 110.6 112.7 390.9
Oakey 16 17:30 32.1 23 7.81 8.4 24 30 1005.5 0.2 17.1 20.0 29.1 76.2 69.8 240.2
Palmerville 16 17:30 26.1 82 20.08 22.8 11 19 1003.4 0 43.2 41.1 80.5 213.2 236.6 821.9
Point Lookout 16 09:00 28 67 18.22 21.4 9 1013.1 0 39.0 37.2 70.7 187.0 204.5 710.7
Portable Qfrg Nr 16 17:20 29.7 59 17.61 21 7 9 1013.1 0 37.6 35.4 66.5 175.9 191.4 665.3
Portable Qfri (Inglewood) 16 17:20 30.7 6 1.89 -10.2 20 22 1013.1 0 5.1 13.8 13.4 34.0 17.0 53.8
Portable Qfrj (North Tamborine) 16 17:20 19.7 100 16.98 19.7 20 24 1013.1 7 37.2 38.7 72.8 192.4 208.6 723.8
Portable Qfrk (Ravenshoe) 16 17:20 23.4 82 17.24 20.2 9 13 1013.1 0 37.4 37.5 70.5 186.4 202.4 702.8
Portable Qfrl (Mt Fox) 16 17:20 26.1 68 16.65 19.9 7 11 1013.1 0 35.9 35.2 65.5 173.0 186.8 648.7
Portable Qfrm (Anduramba) 16 17:20 24.5 61 13.65 16.6 13 15 1013.1 0 29.7 30.7 54.0 142.4 148.7 515.7
Portable Qfrn (Wieambilla) 16 17:20 32.5 14 4.86 1.7 7 13 1013.1 0 11.1 16.7 20.7 53.8 41.8 141.9
Proserpine 16 17:30 28.3 68 18.8 21.8 19 22 1006.4 0 40.2 37.9 72.6 192.1 211.2 733.8
Rainbow Beach 16 09:00 27.4 74 19.47 22.5 9 1008.5 0 41.7 39.6 76.6 202.9 224.0 778.4
Redcliffe 16 17:30 23.3 89 18.61 21.4 19 24 1007.9 2 40.3 39.9 76.7 203.0 223.0 774.3
Redland (Alexandra Hills) 16 17:30 23.6 92 19.57 22.2 15 26 1013.1 6.8 42.3 41.8 81.4 215.4 238.1 826.8
Richmond 16 17:30 38.7 22 10.52 13.2 19 30 1002.4 0 22.4 21.8 34.7 91.5 90.4 313.2
Rockhampton 16 17:30 32.7 44 15.42 19.2 13 19 1005.5 0 32.8 30.4 54.9 145.2 154.8 538.0
Rolleston Airport 16 17:30 33.6 29 10.66 13.6 15 22 1005.1 0 22.9 23.3 37.5 98.7 97.9 339.0
Roma 16 17:30 30.8 12 3.8 -1.9 24 32 1007.3 0 9.0 15.6 18.1 46.8 32.9 110.4
Samuel Hill 16 17:30 28.6 63 17.71 20.9 13 19 1006.6 0 37.9 35.8 67.5 178.7 194.7 676.7
Sandy Cape 16 09:00 27.1 65 16.82 20.1 4 1008.6 0 36.2 35.0 65.1 172.1 186.2 646.7
Scherger 16 17:30 28.7 75 21.2 23.8 7 13 1003.6 0 45.3 42.0 83.0 219.9 245.5 853.3
Springsure 16 09:00 29 51 14.65 18 2 1013.1 0 31.4 30.8 54.9 144.9 153.1 531.7
St George 16 17:30 27.3 10 2.62 -6.9 22 32 1008.9 0 6.6 14.9 15.7 40.3 23.8 77.8
St Lawrence 16 17:30 29.1 61 17.62 20.8 20 28 1006.3 0 37.7 35.4 66.7 176.4 192.1 667.7
Stanthorpe 16 15:00 29.8 18 5.4 3.1 1013.1 0 12.3 17.7 22.9 59.6 48.3 164.3
Sunshine Coast Airport 16 17:30 26.9 76 19.45 22.3 17 24 1007.2 0 41.8 39.7 77.0 203.7 225.0 781.8
Surat 16 09:00 24.7 26 5.88 4.3 11 1013.1 0.4 13.4 19.3 25.8 67.2 56.2 191.7
Sweers Island 16 09:00 30.5 78 24.31 26.2 9 1005.4 0 51.6 47.1 96.0 254.5 288.3 1002.2
Tambo 16 09:00 30 48 14.56 17.8 15 1006.9 0 31.2 30.1 53.5 141.4 149.3 518.6
Taroom 16 09:00 28.9 51 14.57 18 4 1007.5 0.2 31.3 30.5 54.4 143.6 151.7 526.6
Tewantin 16 17:30 27 80 20.59 23.3 15 28 1007 0 44.2 41.8 82.2 217.7 242.2 841.5
Texas 16 09:00 25.7 54 12.93 15.7 4 1013.1 11 28.1 29.2 50.3 132.6 137.0 475.0
Thargomindah 16 17:30 28 10 2.72 -6.4 22 32 1010.2 0 6.8 15.0 15.9 40.7 24.5 80.4
The Monument 16 17:30 38.4 13 6.12 5.1 22 37 1004.3 0 13.5 16.8 22.4 58.4 49.5 169.5
Tin Can Bay (Defence) 16 17:30 28.1 60 16.41 19.8 7 9 1013.1 0 35.2 34.0 62.8 165.9 178.6 620.6
Toowoomba 16 17:30 29.6 27 8.01 8.6 19 24 1007 0 17.6 20.8 30.7 80.3 74.1 255.1
Townsville 16 17:30 28.2 75 20.62 23.3 24 30 1006.3 0 44.1 41.2 81.0 214.5 238.7 829.4
Townsville - Fanning River (Defence) 16 17:30 30.1 46 14.03 17.2 11 20 1005 0 30.1 29.1 51.3 135.6 142.3 493.9
Townsville Air Weapons Range (Defence) 16 17:30 29.3 52 15.18 18.7 19 26 1013.1 0 32.5 31.5 56.8 150.0 159.5 553.8
Trepell 16 17:30 39.2 12 5.89 4.6 24 33 1003.4 0 13.0 16.4 21.6 56.2 47.0 160.8
Urandangi 16 17:30 37.8 11 5.03 2.3 28 39 1004.9 0 11.3 15.8 19.7 51.3 40.5 137.6
Weipa 16 17:30 28.7 73 20.63 23.4 13 17 1003.5 0.2 44.1 40.9 80.4 212.8 236.8 823.0
Wellcamp Airport 16 17:30 31.2 25 8.09 8.8 22 26 1005.3 0 17.7 20.5 30.3 79.4 73.4 252.8
Williamson 16 17:30 28.7 66 18.65 21.7 15 26 1006.8 0 39.9 37.4 71.6 189.4 207.9 722.6
Willis Island 16 17:30 26.4 89 22.16 24.4 20 24 1005.6 1.6 47.6 45.1 90.5 239.7 269.0 934.7
Windorah 16 17:30 34.9 8 3.15 -4.2 24 32 1006.7 0 7.6 14.3 15.7 40.2 26.0 86.4
Winton 16 17:30 39.3 14 6.9 6.9 7 20 1002.9 0 15.0 17.5 24.2 63.3 55.7 191.5
Woolshed 16 17:30 25.6 100 23.81 25.6 7 15 1005.8 0 51.2 49.0 100.0 264.9 299.7 1041.1
Yeppoon 16 17:30 27.7 74 19.8 22.6 28 33 1006.6 0 42.4 40.0 77.7 205.8 227.8 791.6

Last Refresh: 16-Jan-2021 18:16:07

The information presented on this site is sourced from the Bureau of Meteorology.  Copyright in all material sourced from the Bureau of Meteorology resides with the Commonwealth of Australia.